CCA4580 ZUCK-ZUCK
Flight info
| Callsign | CCA4580 |
|---|---|
| Flight time | 1h 30m |
| Altitude | 10800 |
| Route | CKG CJJ |
| Aircraft | A20N/M-SDE2E3FGHIRWXY/LB1 |
Departure
| Time | 2026-05-06 06:18 |
|---|---|
| Airport | Chongqing Jiangbei International Airport (ZUCK) |
Arrival
| Time | 2026-05-06 07:48 |
|---|---|
| Airport | Chongqing Jiangbei International Airport (ZUCK) |
| Time | Latitude | Longitude | Altitude | Speed | Heading |
|---|---|---|---|---|---|
| 2026-05-06 05:55 | 29.71788 | 106.65754 | 1369 ft | 0 kts | 242° |
| 2026-05-06 06:09 | 29.71790 | 106.65761 | 1370 ft | 2 kts | 261° |
| 2026-05-06 06:09 | 29.71795 | 106.65777 | 1370 ft | 2 kts | 238° |
| 2026-05-06 06:10 | 29.71803 | 106.65792 | 1370 ft | 2 kts | 244° |
| 2026-05-06 06:10 | 29.71806 | 106.65802 | 1370 ft | 2 kts | 238° |
| 2026-05-06 06:10 | 29.71817 | 106.65814 | 1370 ft | 2 kts | 211° |
| 2026-05-06 06:10 | 29.71832 | 106.65820 | 1370 ft | 2 kts | 187° |
| 2026-05-06 06:11 | 29.71847 | 106.65820 | 1370 ft | 2 kts | 164° |
| 2026-05-06 06:11 | 29.71860 | 106.65813 | 1370 ft | 2 kts | 141° |
| 2026-05-06 06:11 | 29.71870 | 106.65800 | 1370 ft | 2 kts | 118° |
| 2026-05-06 06:11 | 29.71874 | 106.65790 | 1370 ft | 1 kts | 104° |
| 2026-05-06 06:12 | 29.71875 | 106.65784 | 1370 ft | 0 kts | 103° |
| 2026-05-06 06:14 | 29.71873 | 106.65793 | 1369 ft | 1 kts | 104° |
| 2026-05-06 06:14 | 29.71867 | 106.65814 | 1369 ft | 3 kts | 111° |
| 2026-05-06 06:14 | 29.71856 | 106.65848 | 1370 ft | 5 kts | 111° |
| 2026-05-06 06:14 | 29.71841 | 106.65894 | 1370 ft | 7 kts | 108° |
| 2026-05-06 06:15 | 29.71818 | 106.65974 | 1369 ft | 13 kts | 107° |
| 2026-05-06 06:15 | 29.71763 | 106.66185 | 1370 ft | 14 kts | 107° |
| 2026-05-06 06:15 | 29.71785 | 106.66268 | 1370 ft | 10 kts | 21° |
| 2026-05-06 06:16 | 29.71818 | 106.66276 | 1370 ft | 0 kts | 19° |
| 2026-05-06 06:17 | 29.71849 | 106.66288 | 1370 ft | 26 kts | 19° |
| 2026-05-06 06:17 | 29.72274 | 106.66441 | 1370 ft | 99 kts | 17° |
| 2026-05-06 06:18 | 29.73131 | 106.66733 | 1371 ft | 157 kts | 16° |
| 2026-05-06 06:18 | 29.74271 | 106.67125 | 1706 ft | 178 kts | 15° |
| 2026-05-06 06:18 | 29.75464 | 106.67539 | 2361 ft | 182 kts | 15° |
| 2026-05-06 06:18 | 29.76650 | 106.67994 | 3085 ft | 185 kts | 25° |
| 2026-05-06 06:19 | 29.77565 | 106.69022 | 3772 ft | 192 kts | 61° |
| 2026-05-06 06:19 | 29.77857 | 106.70509 | 4419 ft | 198 kts | 92° |
| 2026-05-06 06:19 | 29.77403 | 106.72023 | 4800 ft | 210 kts | 130° |
| 2026-05-06 06:19 | 29.76130 | 106.72930 | 4903 ft | 230 kts | 167° |
| 2026-05-06 06:20 | 29.74513 | 106.73218 | 4920 ft | 236 kts | 176° |
| 2026-05-06 06:20 | 29.72873 | 106.73367 | 4892 ft | 237 kts | 177° |
| 2026-05-06 06:20 | 29.71232 | 106.73522 | 4823 ft | 236 kts | 176° |
| 2026-05-06 06:20 | 29.69598 | 106.73709 | 4864 ft | 237 kts | 175° |
| 2026-05-06 06:21 | 29.67952 | 106.73921 | 4878 ft | 237 kts | 175° |
| 2026-05-06 06:21 | 29.66320 | 106.74143 | 4884 ft | 237 kts | 174° |
| 2026-05-06 06:21 | 29.64680 | 106.74371 | 4887 ft | 237 kts | 174° |
| 2026-05-06 06:21 | 29.63045 | 106.74601 | 4888 ft | 237 kts | 174° |
| 2026-05-06 06:22 | 29.61403 | 106.74671 | 4884 ft | 236 kts | 188° |
| 2026-05-06 06:22 | 29.59820 | 106.74302 | 4883 ft | 228 kts | 198° |
| 2026-05-06 06:22 | 29.58363 | 106.73801 | 4868 ft | 213 kts | 199° |
| 2026-05-06 06:22 | 29.56990 | 106.73308 | 4865 ft | 202 kts | 199° |
| 2026-05-06 06:23 | 29.55653 | 106.72827 | 4884 ft | 202 kts | 199° |
| 2026-05-06 06:23 | 29.54320 | 106.72352 | 4980 ft | 203 kts | 201° |
| 2026-05-06 06:23 | 29.53148 | 106.71499 | 4897 ft | 197 kts | 234° |
| 2026-05-06 06:23 | 29.52690 | 106.70064 | 4888 ft | 194 kts | 271° |
| 2026-05-06 06:24 | 29.52912 | 106.68549 | 4909 ft | 193 kts | 286° |
| 2026-05-06 06:24 | 29.53288 | 106.67076 | 4902 ft | 183 kts | 288° |
| 2026-05-06 06:24 | 29.53650 | 106.65741 | 4887 ft | 172 kts | 288° |
| 2026-05-06 06:24 | 29.54008 | 106.64433 | 4890 ft | 171 kts | 289° |
| 2026-05-06 06:25 | 29.54372 | 106.63135 | 4897 ft | 171 kts | 292° |
| 2026-05-06 06:25 | 29.55115 | 106.62109 | 4836 ft | 171 kts | 331° |
| 2026-05-06 06:25 | 29.57458 | 106.61858 | 4352 ft | 172 kts | 7° |
| 2026-05-06 06:26 | 29.58611 | 106.62135 | 4108 ft | 171 kts | 12° |
| 2026-05-06 06:26 | 29.59731 | 106.62483 | 3870 ft | 161 kts | 14° |
| 2026-05-06 06:26 | 29.60765 | 106.62834 | 3632 ft | 147 kts | 15° |
| 2026-05-06 06:26 | 29.61694 | 106.63158 | 3410 ft | 133 kts | 15° |
| 2026-05-06 06:27 | 29.62558 | 106.63460 | 3223 ft | 129 kts | 15° |
| 2026-05-06 06:27 | 29.63422 | 106.63761 | 3085 ft | 128 kts | 15° |
| 2026-05-06 06:27 | 29.64281 | 106.64061 | 2949 ft | 134 kts | 15° |
| 2026-05-06 06:27 | 29.65191 | 106.64378 | 2803 ft | 139 kts | 15° |
| 2026-05-06 06:28 | 29.66120 | 106.64704 | 2607 ft | 139 kts | 15° |
| 2026-05-06 06:28 | 29.67042 | 106.65026 | 2409 ft | 138 kts | 15° |
| 2026-05-06 06:28 | 29.67951 | 106.65344 | 2218 ft | 137 kts | 15° |
| 2026-05-06 06:28 | 29.68868 | 106.65663 | 2032 ft | 137 kts | 15° |
| 2026-05-06 06:29 | 29.69777 | 106.65981 | 1853 ft | 136 kts | 16° |
| 2026-05-06 06:29 | 29.70678 | 106.66298 | 1682 ft | 136 kts | 16° |
| 2026-05-06 06:29 | 29.71569 | 106.66604 | 1493 ft | 135 kts | 16° |
| 2026-05-06 06:29 | 29.72470 | 106.66917 | 1371 ft | 127 kts | 16° |
| 2026-05-06 06:30 | 29.73323 | 106.67214 | 1376 ft | 148 kts | 17° |
| 2026-05-06 06:30 | 29.74296 | 106.67561 | 2010 ft | 146 kts | 16° |
| 2026-05-06 06:30 | 29.75232 | 106.67894 | 2759 ft | 140 kts | 15° |
| 2026-05-06 06:30 | 29.76153 | 106.68207 | 3342 ft | 146 kts | 14° |
| 2026-05-06 06:31 | 29.77160 | 106.68550 | 3708 ft | 158 kts | 19° |
| 2026-05-06 06:31 | 29.78139 | 106.69270 | 4002 ft | 177 kts | 41° |
| 2026-05-06 06:31 | 29.79041 | 106.70332 | 4328 ft | 196 kts | 47° |
| 2026-05-06 06:31 | 29.79690 | 106.71761 | 4657 ft | 217 kts | 82° |
| 2026-05-06 06:32 | 29.79359 | 106.73518 | 4882 ft | 236 kts | 122° |
| 2026-05-06 06:32 | 29.78639 | 106.74390 | 4877 ft | 238 kts | 148° |
| 2026-05-06 06:32 | 29.77060 | 106.74907 | 4882 ft | 237 kts | 183° |
| 2026-05-06 06:32 | 29.75450 | 106.74672 | 4843 ft | 235 kts | 192° |
| 2026-05-06 06:33 | 29.74538 | 106.74467 | 4864 ft | 235 kts | 193° |
| 2026-05-06 06:33 | 29.72965 | 106.74094 | 4878 ft | 236 kts | 193° |
| 2026-05-06 06:33 | 29.71347 | 106.73714 | 4884 ft | 236 kts | 193° |
| 2026-05-06 06:33 | 29.69747 | 106.73347 | 4887 ft | 236 kts | 193° |
| 2026-05-06 06:34 | 29.68161 | 106.72991 | 4881 ft | 230 kts | 193° |
| 2026-05-06 06:34 | 29.66636 | 106.72655 | 4887 ft | 213 kts | 193° |
| 2026-05-06 06:34 | 29.65278 | 106.72360 | 4953 ft | 189 kts | 193° |
| 2026-05-06 06:34 | 29.64028 | 106.72038 | 4854 ft | 180 kts | 201° |
| 2026-05-06 06:35 | 29.62925 | 106.71388 | 4715 ft | 177 kts | 218° |
| 2026-05-06 06:35 | 29.62048 | 106.70429 | 4558 ft | 175 kts | 235° |
| 2026-05-06 06:35 | 29.61482 | 106.69221 | 4351 ft | 165 kts | 254° |
| 2026-05-06 06:35 | 29.61312 | 106.67991 | 4057 ft | 154 kts | 273° |
| 2026-05-06 06:36 | 29.61481 | 106.66802 | 3636 ft | 151 kts | 290° |
| 2026-05-06 06:36 | 29.61945 | 106.65739 | 3272 ft | 145 kts | 308° |
| 2026-05-06 06:36 | 29.62642 | 106.64938 | 3085 ft | 143 kts | 327° |
| 2026-05-06 06:36 | 29.63546 | 106.64472 | 3003 ft | 144 kts | 345° |
| 2026-05-06 06:37 | 29.64528 | 106.64324 | 2850 ft | 144 kts | 1° |
| 2026-05-06 06:37 | 29.65513 | 106.64484 | 2712 ft | 144 kts | 15° |
| 2026-05-06 06:37 | 29.66478 | 106.64841 | 2571 ft | 144 kts | 16° |
| 2026-05-06 06:37 | 29.67434 | 106.65155 | 2414 ft | 143 kts | 15° |
| 2026-05-06 06:38 | 29.68383 | 106.65487 | 2196 ft | 142 kts | 17° |
| 2026-05-06 06:38 | 29.69314 | 106.65826 | 1989 ft | 142 kts | 17° |
| 2026-05-06 06:38 | 29.70255 | 106.66152 | 1765 ft | 140 kts | 15° |
| 2026-05-06 06:38 | 29.71195 | 106.66475 | 1589 ft | 140 kts | 16° |
| 2026-05-06 06:39 | 29.72121 | 106.66800 | 1398 ft | 140 kts | 16° |
| 2026-05-06 06:39 | 29.73000 | 106.67105 | 1371 ft | 133 kts | 16° |
| 2026-05-06 06:39 | 29.73969 | 106.67444 | 1721 ft | 152 kts | 16° |
| 2026-05-06 06:39 | 29.74940 | 106.67783 | 2526 ft | 143 kts | 15° |
| 2026-05-06 06:40 | 29.75868 | 106.68105 | 3215 ft | 143 kts | 15° |
| 2026-05-06 06:40 | 29.76860 | 106.68444 | 3687 ft | 154 kts | 14° |
| 2026-05-06 06:40 | 29.77869 | 106.68988 | 3969 ft | 174 kts | 37° |
| 2026-05-06 06:40 | 29.78793 | 106.70000 | 4324 ft | 192 kts | 44° |
| 2026-05-06 06:41 | 29.79686 | 106.71170 | 4692 ft | 210 kts | 55° |
| 2026-05-06 06:41 | 29.80089 | 106.72829 | 4886 ft | 233 kts | 93° |
| 2026-05-06 06:41 | 29.79504 | 106.74580 | 4891 ft | 239 kts | 128° |
| 2026-05-06 06:42 | 29.78185 | 106.75685 | 4797 ft | 238 kts | 166° |
| 2026-05-06 06:42 | 29.76549 | 106.75751 | 4855 ft | 236 kts | 192° |
| 2026-05-06 06:42 | 29.74948 | 106.75359 | 4888 ft | 236 kts | 194° |
| 2026-05-06 06:42 | 29.73342 | 106.74934 | 4888 ft | 236 kts | 194° |
| 2026-05-06 06:43 | 29.71757 | 106.74524 | 4888 ft | 236 kts | 194° |
| 2026-05-06 06:43 | 29.70151 | 106.74120 | 4888 ft | 236 kts | 194° |
| 2026-05-06 06:43 | 29.68543 | 106.73724 | 4888 ft | 236 kts | 194° |
| 2026-05-06 06:43 | 29.66987 | 106.73347 | 4875 ft | 224 kts | 193° |
| 2026-05-06 06:44 | 29.65508 | 106.72994 | 4863 ft | 208 kts | 193° |
| 2026-05-06 06:44 | 29.64153 | 106.72672 | 4853 ft | 193 kts | 194° |
| 2026-05-06 06:44 | 29.62882 | 106.72371 | 4849 ft | 181 kts | 194° |
| 2026-05-06 06:44 | 29.61650 | 106.72076 | 4873 ft | 181 kts | 194° |
| 2026-05-06 06:45 | 29.60439 | 106.71773 | 5005 ft | 180 kts | 198° |
| 2026-05-06 06:45 | 29.59325 | 106.71138 | 5179 ft | 178 kts | 222° |
| 2026-05-06 06:45 | 29.58604 | 106.70030 | 5158 ft | 175 kts | 250° |
| 2026-05-06 06:45 | 29.58412 | 106.68667 | 5003 ft | 172 kts | 276° |
| 2026-05-06 06:46 | 29.58663 | 106.67329 | 4891 ft | 171 kts | 288° |
| 2026-05-06 06:46 | 29.59046 | 106.66042 | 4720 ft | 171 kts | 295° |
| 2026-05-06 06:46 | 29.59653 | 106.64909 | 4379 ft | 166 kts | 312° |
| 2026-05-06 06:46 | 29.60548 | 106.64104 | 3969 ft | 165 kts | 335° |
| 2026-05-06 06:47 | 29.61662 | 106.63816 | 3544 ft | 165 kts | 357° |
| 2026-05-06 06:47 | 29.62768 | 106.63822 | 3282 ft | 154 kts | 2° |
| 2026-05-06 06:47 | 29.63815 | 106.64002 | 2980 ft | 150 kts | 11° |
| 2026-05-06 06:47 | 29.64823 | 106.64264 | 2707 ft | 149 kts | 12° |
| 2026-05-06 06:48 | 29.65817 | 106.64592 | 2548 ft | 148 kts | 16° |
| 2026-05-06 06:48 | 29.66802 | 106.64948 | 2488 ft | 149 kts | 16° |
| 2026-05-06 06:48 | 29.67785 | 106.65311 | 2355 ft | 148 kts | 17° |
| 2026-05-06 06:48 | 29.68767 | 106.65645 | 2137 ft | 146 kts | 15° |
| 2026-05-06 06:49 | 29.69706 | 106.65978 | 1848 ft | 137 kts | 15° |
| 2026-05-06 06:49 | 29.70614 | 106.66283 | 1644 ft | 135 kts | 15° |
| 2026-05-06 06:49 | 29.71509 | 106.66589 | 1505 ft | 135 kts | 16° |
| 2026-05-06 06:49 | 29.72396 | 106.66898 | 1375 ft | 130 kts | 16° |
| 2026-05-06 06:50 | 29.73202 | 106.67171 | 1376 ft | 132 kts | 17° |
| 2026-05-06 06:50 | 29.74124 | 106.67497 | 1893 ft | 138 kts | 15° |
| 2026-05-06 06:50 | 29.75024 | 106.67808 | 2543 ft | 136 kts | 15° |
| 2026-05-06 06:50 | 29.75921 | 106.68116 | 3124 ft | 138 kts | 14° |
| 2026-05-06 06:51 | 29.76868 | 106.68438 | 3483 ft | 148 kts | 14° |
| 2026-05-06 06:51 | 29.77838 | 106.68990 | 3785 ft | 165 kts | 37° |
| 2026-05-06 06:51 | 29.78702 | 106.69955 | 4108 ft | 181 kts | 45° |
| 2026-05-06 06:51 | 29.79595 | 106.71075 | 4439 ft | 197 kts | 46° |
| 2026-05-06 06:52 | 29.80306 | 106.71972 | 4740 ft | 204 kts | 46° |
| 2026-05-06 06:52 | 29.81161 | 106.73062 | 4866 ft | 219 kts | 50° |
| 2026-05-06 06:52 | 29.81762 | 106.74679 | 4849 ft | 233 kts | 86° |
| 2026-05-06 06:52 | 29.81639 | 106.75742 | 4865 ft | 237 kts | 109° |
| 2026-05-06 06:53 | 29.80982 | 106.76908 | 4882 ft | 238 kts | 137° |
| 2026-05-06 06:53 | 29.79552 | 106.77790 | 4888 ft | 237 kts | 170° |
| 2026-05-06 06:53 | 29.77922 | 106.77686 | 4907 ft | 235 kts | 194° |
| 2026-05-06 06:53 | 29.76352 | 106.77245 | 4901 ft | 235 kts | 196° |
| 2026-05-06 06:54 | 29.74768 | 106.76768 | 4893 ft | 235 kts | 197° |
| 2026-05-06 06:54 | 29.73185 | 106.76297 | 4890 ft | 235 kts | 196° |
| 2026-05-06 06:54 | 29.71605 | 106.75838 | 4889 ft | 234 kts | 196° |
| 2026-05-06 06:54 | 29.70017 | 106.75386 | 4889 ft | 235 kts | 195° |
| 2026-05-06 06:55 | 29.68449 | 106.74947 | 4888 ft | 235 kts | 195° |
| 2026-05-06 06:55 | 29.66855 | 106.74507 | 4888 ft | 235 kts | 195° |
| 2026-05-06 06:55 | 29.65256 | 106.74067 | 4888 ft | 235 kts | 195° |
| 2026-05-06 06:55 | 29.63702 | 106.73640 | 4879 ft | 226 kts | 195° |
| 2026-05-06 06:56 | 29.62235 | 106.73238 | 4887 ft | 206 kts | 195° |
| 2026-05-06 06:56 | 29.60914 | 106.72873 | 4907 ft | 183 kts | 197° |
| 2026-05-06 06:56 | 29.60366 | 106.72666 | 4880 ft | 180 kts | 203° |
| 2026-05-06 06:56 | 29.59582 | 106.72175 | 4864 ft | 177 kts | 220° |
| 2026-05-06 06:57 | 29.58786 | 106.71119 | 4798 ft | 174 kts | 244° |
| 2026-05-06 06:57 | 29.58432 | 106.69844 | 4721 ft | 158 kts | 267° |
| 2026-05-06 06:57 | 29.58507 | 106.68675 | 4530 ft | 141 kts | 287° |
| 2026-05-06 06:57 | 29.58884 | 106.67642 | 4123 ft | 140 kts | 299° |
| 2026-05-06 06:58 | 29.59351 | 106.66670 | 3713 ft | 140 kts | 302° |
| 2026-05-06 06:58 | 29.59808 | 106.65877 | 3476 ft | 135 kts | 311° |
| 2026-05-06 06:58 | 29.60076 | 106.65567 | 3397 ft | 135 kts | 324° |
| 2026-05-06 06:58 | 29.60928 | 106.65118 | 3337 ft | 135 kts | 344° |
| 2026-05-06 06:59 | 29.61835 | 106.64873 | 3311 ft | 135 kts | 352° |
| 2026-05-06 06:59 | 29.62767 | 106.64803 | 3187 ft | 135 kts | 358° |
| 2026-05-06 06:59 | 29.63710 | 106.64803 | 3018 ft | 135 kts | 0° |
| 2026-05-06 06:59 | 29.64638 | 106.64841 | 2845 ft | 134 kts | 2° |
| 2026-05-06 07:00 | 29.65571 | 106.64917 | 2694 ft | 134 kts | 5° |
| 2026-05-06 07:00 | 29.66493 | 106.65042 | 2492 ft | 133 kts | 7° |
| 2026-05-06 07:00 | 29.67405 | 106.65226 | 2313 ft | 133 kts | 10° |
| 2026-05-06 07:00 | 29.68300 | 106.65470 | 2147 ft | 133 kts | 15° |
| 2026-05-06 07:01 | 29.69188 | 106.65784 | 1968 ft | 132 kts | 16° |
| 2026-05-06 07:01 | 29.70065 | 106.66077 | 1810 ft | 132 kts | 15° |
| 2026-05-06 07:01 | 29.70655 | 106.66280 | 1691 ft | 131 kts | 16° |
| 2026-05-06 07:02 | 29.74651 | 106.67682 | 2501 ft | 137 kts | 16° |
| 2026-05-06 07:02 | 29.75551 | 106.68005 | 3130 ft | 140 kts | 15° |
| 2026-05-06 07:03 | 29.76486 | 106.68340 | 3593 ft | 152 kts | 14° |
| 2026-05-06 07:03 | 29.77051 | 106.68529 | 3816 ft | 160 kts | 16° |
| 2026-05-06 07:03 | 29.78070 | 106.69173 | 4173 ft | 179 kts | 41° |
| 2026-05-06 07:03 | 29.78647 | 106.70508 | 4464 ft | 203 kts | 88° |
| 2026-05-06 07:04 | 29.78193 | 106.72070 | 4797 ft | 222 kts | 130° |
| 2026-05-06 07:04 | 29.76860 | 106.73007 | 4878 ft | 229 kts | 171° |
| 2026-05-06 07:04 | 29.75295 | 106.72898 | 4910 ft | 228 kts | 194° |
| 2026-05-06 07:04 | 29.73735 | 106.72553 | 4901 ft | 229 kts | 191° |
| 2026-05-06 07:05 | 29.72164 | 106.72284 | 4893 ft | 229 kts | 190° |
| 2026-05-06 07:05 | 29.70595 | 106.72026 | 4890 ft | 229 kts | 190° |
| 2026-05-06 07:05 | 29.69021 | 106.71764 | 4888 ft | 227 kts | 190° |
| 2026-05-06 07:05 | 29.67517 | 106.71508 | 4895 ft | 209 kts | 190° |
| 2026-05-06 07:06 | 29.66131 | 106.71272 | 4881 ft | 189 kts | 191° |
| 2026-05-06 07:06 | 29.64941 | 106.70904 | 4678 ft | 171 kts | 211° |
| 2026-05-06 07:06 | 29.64101 | 106.70052 | 4444 ft | 154 kts | 241° |
| 2026-05-06 07:06 | 29.63781 | 106.68935 | 4039 ft | 149 kts | 271° |
| 2026-05-06 07:07 | 29.63967 | 106.67745 | 3462 ft | 157 kts | 290° |
| 2026-05-06 07:07 | 29.64385 | 106.66616 | 3077 ft | 152 kts | 306° |
| 2026-05-06 07:07 | 29.65113 | 106.65798 | 2733 ft | 145 kts | 327° |
| 2026-05-06 07:07 | 29.65980 | 106.65274 | 2438 ft | 135 kts | 340° |
| 2026-05-06 07:08 | 29.66892 | 106.65126 | 2271 ft | 133 kts | 3° |
| 2026-05-06 07:08 | 29.67798 | 106.65286 | 2199 ft | 134 kts | 13° |
| 2026-05-06 07:08 | 29.68692 | 106.65604 | 2075 ft | 133 kts | 15° |
| 2026-05-06 07:08 | 29.69571 | 106.65912 | 1895 ft | 133 kts | 15° |
| 2026-05-06 07:09 | 29.70448 | 106.66211 | 1709 ft | 132 kts | 15° |
| 2026-05-06 07:09 | 29.71331 | 106.66518 | 1532 ft | 131 kts | 16° |
| 2026-05-06 07:09 | 29.72197 | 106.66825 | 1382 ft | 130 kts | 17° |
| 2026-05-06 07:10 | 29.74985 | 106.67783 | 2468 ft | 144 kts | 14° |
| 2026-05-06 07:10 | 29.75891 | 106.68153 | 3182 ft | 144 kts | 34° |
| 2026-05-06 07:10 | 29.76391 | 106.69170 | 3643 ft | 164 kts | 88° |
| 2026-05-06 07:11 | 29.75902 | 106.70396 | 4127 ft | 183 kts | 141° |
| 2026-05-06 07:11 | 29.74680 | 106.70880 | 4546 ft | 199 kts | 182° |
| 2026-05-06 07:11 | 29.73667 | 106.70799 | 4812 ft | 212 kts | 188° |
| 2026-05-06 07:11 | 29.72142 | 106.70578 | 4882 ft | 224 kts | 189° |
| 2026-05-06 07:12 | 29.70587 | 106.70345 | 4889 ft | 225 kts | 189° |
| 2026-05-06 07:12 | 29.69048 | 106.70124 | 4888 ft | 224 kts | 189° |
| 2026-05-06 07:12 | 29.67506 | 106.69914 | 4877 ft | 216 kts | 188° |
| 2026-05-06 07:12 | 29.66055 | 106.69724 | 4892 ft | 208 kts | 188° |
| 2026-05-06 07:13 | 29.64682 | 106.69548 | 4924 ft | 188 kts | 189° |
| 2026-05-06 07:13 | 29.63466 | 106.69161 | 4656 ft | 181 kts | 208° |
| 2026-05-06 07:13 | 29.62452 | 106.68323 | 4250 ft | 179 kts | 230° |
| 2026-05-06 07:13 | 29.61849 | 106.67117 | 3828 ft | 173 kts | 257° |
| 2026-05-06 07:14 | 29.61842 | 106.65826 | 3543 ft | 157 kts | 290° |
| 2026-05-06 07:14 | 29.62452 | 106.64886 | 3298 ft | 140 kts | 328° |
| 2026-05-06 07:14 | 29.63325 | 106.64496 | 2985 ft | 134 kts | 351° |
| 2026-05-06 07:14 | 29.64243 | 106.64411 | 2786 ft | 133 kts | 2° |
| 2026-05-06 07:15 | 29.65166 | 106.64473 | 2779 ft | 134 kts | 5° |
| 2026-05-06 07:15 | 29.66078 | 106.64688 | 2609 ft | 134 kts | 16° |
| 2026-05-06 07:15 | 29.66964 | 106.65014 | 2411 ft | 134 kts | 17° |
| 2026-05-06 07:15 | 29.67851 | 106.65321 | 2245 ft | 132 kts | 16° |
| 2026-05-06 07:16 | 29.68725 | 106.65627 | 2065 ft | 132 kts | 16° |
| 2026-05-06 07:16 | 29.69601 | 106.65927 | 1893 ft | 132 kts | 15° |
| 2026-05-06 07:16 | 29.70487 | 106.66219 | 1722 ft | 131 kts | 17° |
| 2026-05-06 07:16 | 29.71349 | 106.66518 | 1541 ft | 131 kts | 17° |
| 2026-05-06 07:17 | 29.72217 | 106.66825 | 1372 ft | 128 kts | 17° |
| 2026-05-06 07:17 | 29.73088 | 106.67123 | 1449 ft | 143 kts | 15° |
| 2026-05-06 07:17 | 29.73976 | 106.67523 | 2110 ft | 138 kts | 48° |
| 2026-05-06 07:17 | 29.74185 | 106.68582 | 2413 ft | 155 kts | 106° |
| 2026-05-06 07:18 | 29.73442 | 106.69558 | 2545 ft | 181 kts | 155° |
| 2026-05-06 07:18 | 29.72174 | 106.69782 | 2869 ft | 191 kts | 182° |
| 2026-05-06 07:18 | 29.70796 | 106.69682 | 3218 ft | 206 kts | 185° |
| 2026-05-06 07:18 | 29.69349 | 106.69572 | 3582 ft | 206 kts | 185° |
| 2026-05-06 07:19 | 29.67941 | 106.69482 | 3846 ft | 199 kts | 183° |
| 2026-05-06 07:19 | 29.66607 | 106.69721 | 4310 ft | 197 kts | 160° |
| 2026-05-06 07:19 | 29.65231 | 106.70214 | 4481 ft | 218 kts | 170° |
| 2026-05-06 07:19 | 29.63706 | 106.70319 | 4771 ft | 221 kts | 190° |
| 2026-05-06 07:20 | 29.62359 | 106.69652 | 4760 ft | 202 kts | 223° |
| 2026-05-06 07:20 | 29.61688 | 106.68381 | 4581 ft | 180 kts | 262° |
| 2026-05-06 07:20 | 29.61872 | 106.67066 | 4344 ft | 161 kts | 301° |
| 2026-05-06 07:20 | 29.62579 | 106.66121 | 3926 ft | 159 kts | 319° |
| 2026-05-06 07:21 | 29.63482 | 106.65383 | 3421 ft | 162 kts | 331° |
| 2026-05-06 07:21 | 29.64485 | 106.64878 | 3022 ft | 157 kts | 347° |
| 2026-05-06 07:21 | 29.65525 | 106.64795 | 2731 ft | 147 kts | 2° |
| 2026-05-06 07:21 | 29.66506 | 106.64906 | 2501 ft | 135 kts | 7° |
| 2026-05-06 07:22 | 29.67414 | 106.65168 | 2264 ft | 134 kts | 16° |
| 2026-05-06 07:22 | 29.68305 | 106.65457 | 2110 ft | 132 kts | 15° |
| 2026-05-06 07:22 | 29.69176 | 106.65766 | 1972 ft | 131 kts | 17° |
| 2026-05-06 07:22 | 29.70051 | 106.66070 | 1822 ft | 131 kts | 16° |
| 2026-05-06 07:23 | 29.70915 | 106.66369 | 1619 ft | 130 kts | 17° |
| 2026-05-06 07:23 | 29.71787 | 106.66675 | 1457 ft | 130 kts | 17° |
| 2026-05-06 07:23 | 29.72607 | 106.66969 | 1370 ft | 108 kts | 15° |
| 2026-05-06 07:23 | 29.73282 | 106.67195 | 1370 ft | 118 kts | 17° |
| 2026-05-06 07:24 | 29.74190 | 106.67510 | 1617 ft | 150 kts | 15° |
| 2026-05-06 07:24 | 29.75235 | 106.67869 | 2148 ft | 161 kts | 15° |
| 2026-05-06 07:24 | 29.76303 | 106.68228 | 2825 ft | 166 kts | 15° |
| 2026-05-06 07:24 | 29.77400 | 106.68614 | 3632 ft | 163 kts | 22° |
| 2026-05-06 07:25 | 29.78177 | 106.69440 | 4316 ft | 156 kts | 62° |
| 2026-05-06 07:25 | 29.78306 | 106.70673 | 4758 ft | 165 kts | 104° |
| 2026-05-06 07:25 | 29.77600 | 106.71791 | 4892 ft | 192 kts | 152° |
| 2026-05-06 07:25 | 29.76708 | 106.72079 | 4878 ft | 215 kts | 180° |
| 2026-05-06 07:26 | 29.71377 | 106.71215 | 4836 ft | 236 kts | 190° |
| 2026-05-06 07:26 | 29.70839 | 106.71121 | 4851 ft | 237 kts | 190° |
| 2026-05-06 07:28 | 29.62843 | 106.68833 | 4396 ft | 152 kts | 245° |
| 2026-05-06 07:28 | 29.62836 | 106.66579 | 3508 ft | 148 kts | 295° |
| 2026-05-06 07:29 | 29.63340 | 106.65557 | 3124 ft | 142 kts | 312° |
| 2026-05-06 07:29 | 29.64082 | 106.64902 | 2861 ft | 133 kts | 338° |
| 2026-05-06 07:29 | 29.64971 | 106.64666 | 2706 ft | 132 kts | 2° |
| 2026-05-06 07:29 | 29.65891 | 106.64728 | 2627 ft | 133 kts | 4° |
| 2026-05-06 07:30 | 29.66795 | 106.64937 | 2448 ft | 133 kts | 14° |
| 2026-05-06 07:30 | 29.67682 | 106.65231 | 2281 ft | 133 kts | 16° |
| 2026-05-06 07:30 | 29.68559 | 106.65544 | 2120 ft | 132 kts | 17° |
| 2026-05-06 07:30 | 29.69431 | 106.65861 | 1931 ft | 131 kts | 17° |
| 2026-05-06 07:31 | 29.70310 | 106.66166 | 1762 ft | 131 kts | 15° |
| 2026-05-06 07:31 | 29.71176 | 106.66466 | 1577 ft | 130 kts | 16° |
| 2026-05-06 07:31 | 29.72039 | 106.66760 | 1410 ft | 130 kts | 18° |
| 2026-05-06 07:31 | 29.72831 | 106.67039 | 1370 ft | 102 kts | 18° |
| 2026-05-06 07:32 | 29.74571 | 106.67601 | 1836 ft | 162 kts | 15° |
| 2026-05-06 07:32 | 29.75624 | 106.67948 | 2698 ft | 155 kts | 21° |
| 2026-05-06 07:32 | 29.76390 | 106.68710 | 3444 ft | 155 kts | 60° |
| 2026-05-06 07:33 | 29.76486 | 106.70004 | 3968 ft | 178 kts | 110° |
| 2026-05-06 07:33 | 29.75623 | 106.71065 | 4457 ft | 193 kts | 160° |
| 2026-05-06 07:33 | 29.74259 | 106.71233 | 4818 ft | 207 kts | 187° |
| 2026-05-06 07:33 | 29.72772 | 106.70985 | 4884 ft | 222 kts | 192° |
| 2026-05-06 07:34 | 29.71235 | 106.70677 | 4889 ft | 224 kts | 191° |
| 2026-05-06 07:34 | 29.69709 | 106.70400 | 4889 ft | 225 kts | 190° |
| 2026-05-06 07:34 | 29.68154 | 106.70147 | 4887 ft | 225 kts | 189° |
| 2026-05-06 07:34 | 29.66645 | 106.69924 | 4872 ft | 211 kts | 189° |
| 2026-05-06 07:35 | 29.65255 | 106.69733 | 4908 ft | 194 kts | 188° |
| 2026-05-06 07:35 | 29.63979 | 106.69562 | 4875 ft | 174 kts | 188° |
| 2026-05-06 07:35 | 29.62824 | 106.69409 | 4853 ft | 162 kts | 188° |
| 2026-05-06 07:35 | 29.61775 | 106.69073 | 4808 ft | 154 kts | 219° |
| 2026-05-06 07:36 | 29.61211 | 106.68124 | 4450 ft | 144 kts | 264° |
| 2026-05-06 07:36 | 29.61328 | 106.67028 | 4031 ft | 140 kts | 296° |
| 2026-05-06 07:36 | 29.61809 | 106.66061 | 3621 ft | 141 kts | 308° |
| 2026-05-06 07:36 | 29.62482 | 106.65256 | 3260 ft | 136 kts | 324° |
| 2026-05-06 07:37 | 29.63295 | 106.64740 | 3098 ft | 134 kts | 343° |
| 2026-05-06 07:37 | 29.64207 | 106.64576 | 2955 ft | 134 kts | 359° |
| 2026-05-06 07:37 | 29.65134 | 106.64632 | 2771 ft | 134 kts | 6° |
| 2026-05-06 07:37 | 29.66056 | 106.64777 | 2610 ft | 133 kts | 11° |
| 2026-05-06 07:38 | 29.66954 | 106.65033 | 2420 ft | 133 kts | 15° |
| 2026-05-06 07:38 | 29.67841 | 106.65317 | 2233 ft | 132 kts | 16° |
| 2026-05-06 07:38 | 29.68713 | 106.65640 | 2064 ft | 132 kts | 17° |
| 2026-05-06 07:38 | 29.69596 | 106.65964 | 1917 ft | 133 kts | 15° |
| 2026-05-06 07:39 | 29.70483 | 106.66235 | 1724 ft | 131 kts | 14° |
| 2026-05-06 07:39 | 29.71352 | 106.66521 | 1548 ft | 131 kts | 17° |
| 2026-05-06 07:39 | 29.72221 | 106.66832 | 1377 ft | 128 kts | 18° |
| 2026-05-06 07:39 | 29.72967 | 106.67090 | 1370 ft | 113 kts | 16° |
| 2026-05-06 07:40 | 29.73918 | 106.67413 | 1583 ft | 157 kts | 16° |
| 2026-05-06 07:40 | 29.74903 | 106.67794 | 2502 ft | 150 kts | 26° |
| 2026-05-06 07:40 | 29.75532 | 106.68686 | 3315 ft | 155 kts | 76° |
| 2026-05-06 07:40 | 29.75350 | 106.69939 | 3875 ft | 168 kts | 121° |
| 2026-05-06 07:41 | 29.74408 | 106.70750 | 4160 ft | 183 kts | 168° |
| 2026-05-06 07:41 | 29.73082 | 106.70717 | 4462 ft | 198 kts | 188° |
| 2026-05-06 07:41 | 29.71656 | 106.70526 | 4784 ft | 217 kts | 188° |
| 2026-05-06 07:41 | 29.70133 | 106.70323 | 4889 ft | 224 kts | 188° |
| 2026-05-06 07:42 | 29.68570 | 106.70118 | 4892 ft | 225 kts | 188° |
| 2026-05-06 07:42 | 29.65560 | 106.69733 | 4895 ft | 224 kts | 188° |
| 2026-05-06 07:42 | 29.64038 | 106.69539 | 4912 ft | 215 kts | 188° |
| 2026-05-06 07:43 | 29.62666 | 106.69353 | 4877 ft | 199 kts | 191° |
| 2026-05-06 07:43 | 29.61644 | 106.69092 | 4777 ft | 191 kts | 199° |
| 2026-05-06 07:43 | 29.60447 | 106.68544 | 4606 ft | 180 kts | 211° |
| 2026-05-06 07:43 | 29.59468 | 106.67718 | 4396 ft | 170 kts | 228° |
| 2026-05-06 07:44 | 29.58855 | 106.66612 | 4099 ft | 165 kts | 255° |
| 2026-05-06 07:44 | 29.58772 | 106.65342 | 3839 ft | 156 kts | 286° |
| 2026-05-06 07:44 | 29.59290 | 106.64337 | 3661 ft | 147 kts | 322° |
| 2026-05-06 07:44 | 29.60211 | 106.63905 | 3467 ft | 146 kts | 356° |
| 2026-05-06 07:45 | 29.61211 | 106.63903 | 3343 ft | 139 kts | 0° |
| 2026-05-06 07:45 | 29.62154 | 106.63933 | 3203 ft | 133 kts | 1° |
| 2026-05-06 07:45 | 29.63081 | 106.63988 | 3157 ft | 134 kts | 4° |
| 2026-05-06 07:45 | 29.64002 | 106.64095 | 3026 ft | 133 kts | 9° |
| 2026-05-06 07:46 | 29.64911 | 106.64304 | 2832 ft | 134 kts | 13° |
| 2026-05-06 07:46 | 29.65808 | 106.64594 | 2663 ft | 133 kts | 14° |
| 2026-05-06 07:46 | 29.66697 | 106.64881 | 2499 ft | 132 kts | 17° |
| 2026-05-06 07:46 | 29.67567 | 106.65198 | 2291 ft | 131 kts | 18° |
| 2026-05-06 07:47 | 29.68429 | 106.65518 | 2148 ft | 131 kts | 18° |
| 2026-05-06 07:47 | 29.69298 | 106.65830 | 1949 ft | 130 kts | 16° |
| 2026-05-06 07:47 | 29.70161 | 106.66132 | 1783 ft | 131 kts | 15° |
| 2026-05-06 07:47 | 29.71037 | 106.66433 | 1603 ft | 130 kts | 14° |
| 2026-05-06 07:48 | 29.71901 | 106.66714 | 1434 ft | 129 kts | 17° |
| 2026-05-06 07:48 | 29.72718 | 106.67006 | 1370 ft | 106 kts | 16° |
| 2026-05-06 07:48 | 29.73261 | 106.67188 | 1370 ft | 56 kts | 17° |
| 2026-05-06 07:48 | 29.73541 | 106.67275 | 1370 ft | 36 kts | 4° |
| 2026-05-06 07:49 | 29.73779 | 106.67248 | 1370 ft | 32 kts | 349° |
| 2026-05-06 07:49 | 29.73971 | 106.67196 | 1370 ft | 21 kts | 308° |
| 2026-05-06 07:49 | 29.74014 | 106.67044 | 1370 ft | 19 kts | 287° |
| 2026-05-06 07:49 | 29.74053 | 106.66904 | 1370 ft | 17 kts | 286° |
| 2026-05-06 07:50 | 29.74088 | 106.66775 | 1370 ft | 16 kts | 288° |
| 2026-05-06 07:50 | 29.74110 | 106.66655 | 1370 ft | 14 kts | 279° |
| 2026-05-06 07:50 | 29.74124 | 106.66587 | 1370 ft | 1 kts | 286° |
| 2026-05-06 07:50 | 29.74125 | 106.66583 | 1370 ft | 0 kts | 286° |